sensor_id;sensor_type;location;lat;lon;timestamp;temperature;humidity
39925;DHT22;25592;49.986;11.618;2024-03-23T00:55:46;12.70;94.80
39925;DHT22;25592;49.986;11.618;2024-03-23T00:58:31;12.60;95.10
39925;DHT22;25592;49.986;11.618;2024-03-23T01:01:16;12.60;95.00
39925;DHT22;25592;49.986;11.618;2024-03-23T01:04:00;12.70;95.20
39925;DHT22;25592;49.986;11.618;2024-03-23T01:06:45;12.60;95.00
39925;DHT22;25592;49.986;11.618;2024-03-23T01:09:29;12.50;95.10
39925;DHT22;25592;49.986;11.618;2024-03-23T01:12:14;12.40;95.20
39925;DHT22;25592;49.986;11.618;2024-03-23T01:14:59;12.40;95.30
39925;DHT22;25592;49.986;11.618;2024-03-23T01:17:43;12.40;95.30
39925;DHT22;25592;49.986;11.618;2024-03-23T01:20:28;12.50;95.40
39925;DHT22;25592;49.986;11.618;2024-03-23T01:23:13;12.60;95.30
39925;DHT22;25592;49.986;11.618;2024-03-23T01:25:57;12.60;95.20
39925;DHT22;25592;49.986;11.618;2024-03-23T01:28:42;12.60;95.10
39925;DHT22;25592;49.986;11.618;2024-03-23T01:31:27;12.50;95.20
39925;DHT22;25592;49.986;11.618;2024-03-23T01:34:12;12.60;95.20
39925;DHT22;25592;49.986;11.618;2024-03-23T01:36:56;12.60;95.30
39925;DHT22;25592;49.986;11.618;2024-03-23T01:39:41;12.50;95.40
39925;DHT22;25592;49.986;11.618;2024-03-23T01:42:26;12.50;95.60
39925;DHT22;25592;49.986;11.618;2024-03-23T01:45:11;12.50;95.70
39925;DHT22;25592;49.986;11.618;2024-03-23T01:47:55;12.50;95.70
39925;DHT22;25592;49.986;11.618;2024-03-23T01:50:40;12.50;95.70
39925;DHT22;25592;49.986;11.618;2024-03-23T01:53:25;12.50;95.60
39925;DHT22;25592;49.986;11.618;2024-03-23T01:56:09;12.50;95.60
39925;DHT22;25592;49.986;11.618;2024-03-23T01:58:54;12.60;95.70
39925;DHT22;25592;49.986;11.618;2024-03-23T02:01:38;12.60;95.60
39925;DHT22;25592;49.986;11.618;2024-03-23T02:04:23;12.60;95.70
39925;DHT22;25592;49.986;11.618;2024-03-23T02:07:08;12.70;95.60
39925;DHT22;25592;49.986;11.618;2024-03-23T02:09:53;12.70;95.60
39925;DHT22;25592;49.986;11.618;2024-03-23T02:12:37;12.70;95.60
39925;DHT22;25592;49.986;11.618;2024-03-23T02:15:22;12.70;95.70
39925;DHT22;25592;49.986;11.618;2024-03-23T02:18:07;12.70;95.60
39925;DHT22;25592;49.986;11.618;2024-03-23T02:20:53;12.70;95.60
39925;DHT22;25592;49.986;11.618;2024-03-23T02:23:37;12.70;95.60
39925;DHT22;25592;49.986;11.618;2024-03-23T02:26:22;12.60;95.70
39925;DHT22;25592;49.986;11.618;2024-03-23T02:29:06;12.70;95.80
39925;DHT22;25592;49.986;11.618;2024-03-23T02:31:51;12.60;95.80
39925;DHT22;25592;49.986;11.618;2024-03-23T02:34:36;12.60;95.80
39925;DHT22;25592;49.986;11.618;2024-03-23T02:37:20;12.60;95.70
39925;DHT22;25592;49.986;11.618;2024-03-23T02:40:05;12.60;95.70
39925;DHT22;25592;49.986;11.618;2024-03-23T02:42:50;12.60;95.80
39925;DHT22;25592;49.986;11.618;2024-03-23T02:45:34;12.60;95.80
39925;DHT22;25592;49.986;11.618;2024-03-23T02:48:19;12.60;95.80
39925;DHT22;25592;49.986;11.618;2024-03-23T02:51:04;12.60;95.80
39925;DHT22;25592;49.986;11.618;2024-03-23T02:53:48;12.70;95.90
39925;DHT22;25592;49.986;11.618;2024-03-23T02:56:33;12.70;95.90
39925;DHT22;25592;49.986;11.618;2024-03-23T02:59:18;12.60;95.80
39925;DHT22;25592;49.986;11.618;2024-03-23T03:02:02;12.50;95.80
39925;DHT22;25592;49.986;11.618;2024-03-23T03:04:48;12.50;95.90
39925;DHT22;25592;49.986;11.618;2024-03-23T03:07:33;12.50;96.10
39925;DHT22;25592;49.986;11.618;2024-03-23T03:10:17;12.40;96.10
39925;DHT22;25592;49.986;11.618;2024-03-23T03:13:02;12.40;96.20
39925;DHT22;25592;49.986;11.618;2024-03-23T03:15:47;12.40;96.20
39925;DHT22;25592;49.986;11.618;2024-03-23T03:18:31;12.40;96.20
39925;DHT22;25592;49.986;11.618;2024-03-23T03:21:16;12.50;96.20
39925;DHT22;25592;49.986;11.618;2024-03-23T03:24:01;12.40;96.20
39925;DHT22;25592;49.986;11.618;2024-03-23T03:26:46;12.30;96.10
39925;DHT22;25592;49.986;11.618;2024-03-23T03:29:30;12.30;96.20
39925;DHT22;25592;49.986;11.618;2024-03-23T03:32:20;12.30;96.20
39925;DHT22;25592;49.986;11.618;2024-03-23T03:35:05;12.30;96.20
39925;DHT22;25592;49.986;11.618;2024-03-23T03:37:49;12.30;96.00
39925;DHT22;25592;49.986;11.618;2024-03-23T03:40:34;12.30;96.10
39925;DHT22;25592;49.986;11.618;2024-03-23T03:43:19;12.30;96.00
39925;DHT22;25592;49.986;11.618;2024-03-23T03:46:04;12.20;96.10
39925;DHT22;25592;49.986;11.618;2024-03-23T03:48:48;12.10;96.10
39925;DHT22;25592;49.986;11.618;2024-03-23T03:51:33;12.00;96.20
39925;DHT22;25592;49.986;11.618;2024-03-23T03:54:17;12.00;96.30
39925;DHT22;25592;49.986;11.618;2024-03-23T03:57:02;12.10;96.30
39925;DHT22;25592;49.986;11.618;2024-03-23T03:59:47;12.20;96.20
39925;DHT22;25592;49.986;11.618;2024-03-23T04:02:32;12.20;96.10
39925;DHT22;25592;49.986;11.618;2024-03-23T04:05:17;12.40;96.00
39925;DHT22;25592;49.986;11.618;2024-03-23T04:08:01;12.30;95.90
39925;DHT22;25592;49.986;11.618;2024-03-23T04:10:46;12.20;96.00
39925;DHT22;25592;49.986;11.618;2024-03-23T04:13:30;12.30;96.00
39925;DHT22;25592;49.986;11.618;2024-03-23T04:16:26;12.10;96.00
39925;DHT22;25592;49.986;11.618;2024-03-23T04:19:10;12.00;96.20
39925;DHT22;25592;49.986;11.618;2024-03-23T04:21:55;12.20;96.20
39925;DHT22;25592;49.986;11.618;2024-03-23T04:24:39;12.20;96.20
39925;DHT22;25592;49.986;11.618;2024-03-23T04:27:24;12.20;96.10
39925;DHT22;25592;49.986;11.618;2024-03-23T04:30:09;12.20;96.10
39925;DHT22;25592;49.986;11.618;2024-03-23T04:32:56;12.20;96.10
39925;DHT22;25592;49.986;11.618;2024-03-23T04:35:42;12.20;96.10
39925;DHT22;25592;49.986;11.618;2024-03-23T04:38:27;12.20;96.30
39925;DHT22;25592;49.986;11.618;2024-03-23T04:41:11;12.20;96.30
39925;DHT22;25592;49.986;11.618;2024-03-23T04:43:56;12.30;96.40
39925;DHT22;25592;49.986;11.618;2024-03-23T04:46:41;12.20;96.70
39925;DHT22;25592;49.986;11.618;2024-03-23T04:49:25;12.10;97.10
39925;DHT22;25592;49.986;11.618;2024-03-23T04:52:10;12.10;97.30
39925;DHT22;25592;49.986;11.618;2024-03-23T04:54:55;12.00;97.70
39925;DHT22;25592;49.986;11.618;2024-03-23T04:57:40;12.00;97.70
39925;DHT22;25592;49.986;11.618;2024-03-23T05:00:25;12.10;97.90
39925;DHT22;25592;49.986;11.618;2024-03-23T05:03:09;12.00;98.50
39925;DHT22;25592;49.986;11.618;2024-03-23T05:05:53;11.90;99.50
39925;DHT22;25592;49.986;11.618;2024-03-23T05:08:38;11.90;99.40
39925;DHT22;25592;49.986;11.618;2024-03-23T05:11:23;12.10;99.00
39925;DHT22;25592;49.986;11.618;2024-03-23T05:14:08;12.10;99.50
39925;DHT22;25592;49.986;11.618;2024-03-23T05:16:53;12.20;99.80
39925;DHT22;25592;49.986;11.618;2024-03-23T05:19:37;12.30;99.70
39925;DHT22;25592;49.986;11.618;2024-03-23T05:22:22;12.30;99.80
39925;DHT22;25592;49.986;11.618;2024-03-23T05:25:07;12.30;99.90
39925;DHT22;25592;49.986;11.618;2024-03-23T05:27:51;12.20;99.90
39925;DHT22;25592;49.986;11.618;2024-03-23T05:30:36;12.20;99.90
39925;DHT22;25592;49.986;11.618;2024-03-23T05:33:20;12.20;99.90
39925;DHT22;25592;49.986;11.618;2024-03-23T05:36:05;12.10;99.90
39925;DHT22;25592;49.986;11.618;2024-03-23T05:38:52;12.20;99.90
39925;DHT22;25592;49.986;11.618;2024-03-23T05:41:37;12.20;99.90
39925;DHT22;25592;49.986;11.618;2024-03-23T05:44:21;12.10;99.90
39925;DHT22;25592;49.986;11.618;2024-03-23T05:47:06;12.10;99.90
39925;DHT22;25592;49.986;11.618;2024-03-23T05:49:51;12.10;99.90
39925;DHT22;25592;49.986;11.618;2024-03-23T05:52:36;12.00;99.40
39925;DHT22;25592;49.986;11.618;2024-03-23T05:55:20;12.10;99.90
39925;DHT22;25592;49.986;11.618;2024-03-23T05:58:05;12.20;99.90
39925;DHT22;25592;49.986;11.618;2024-03-23T06:00:57;12.20;99.90
39925;DHT22;25592;49.986;11.618;2024-03-23T06:03:43;12.20;99.90
39925;DHT22;25592;49.986;11.618;2024-03-23T06:06:28;12.20;99.90
39925;DHT22;25592;49.986;11.618;2024-03-23T06:09:14;12.30;99.90
39925;DHT22;25592;49.986;11.618;2024-03-23T06:11:59;12.30;99.90
39925;DHT22;25592;49.986;11.618;2024-03-23T06:14:44;12.30;99.70
39925;DHT22;25592;49.986;11.618;2024-03-23T06:17:29;12.30;99.90
39925;DHT22;25592;49.986;11.618;2024-03-23T06:20:13;12.30;99.90
39925;DHT22;25592;49.986;11.618;2024-03-23T06:22:58;12.30;99.90
39925;DHT22;25592;49.986;11.618;2024-03-23T06:25:43;12.20;99.90
39925;DHT22;25592;49.986;11.618;2024-03-23T06:28:29;12.30;99.90
39925;DHT22;25592;49.986;11.618;2024-03-23T06:31:14;12.30;99.80
39925;DHT22;25592;49.986;11.618;2024-03-23T06:33:58;12.20;99.80
39925;DHT22;25592;49.986;11.618;2024-03-23T06:36:43;12.10;99.90
39925;DHT22;25592;49.986;11.618;2024-03-23T06:39:28;12.00;99.90
39925;DHT22;25592;49.986;11.618;2024-03-23T06:42:13;12.00;99.90
39925;DHT22;25592;49.986;11.618;2024-03-23T06:44:57;12.00;99.90
39925;DHT22;25592;49.986;11.618;2024-03-23T06:47:42;11.90;99.90
39925;DHT22;25592;49.986;11.618;2024-03-23T06:50:27;11.90;99.90
39925;DHT22;25592;49.986;11.618;2024-03-23T06:53:13;11.90;99.90
39925;DHT22;25592;49.986;11.618;2024-03-23T06:55:58;11.80;99.90
39925;DHT22;25592;49.986;11.618;2024-03-23T06:58:43;11.90;99.90
39925;DHT22;25592;49.986;11.618;2024-03-23T07:01:27;11.80;99.90
39925;DHT22;25592;49.986;11.618;2024-03-23T07:04:13;11.80;99.90
39925;DHT22;25592;49.986;11.618;2024-03-23T07:06:57;11.80;99.90
39925;DHT22;25592;49.986;11.618;2024-03-23T07:09:42;11.90;99.90
39925;DHT22;25592;49.986;11.618;2024-03-23T07:12:26;11.90;99.90
39925;DHT22;25592;49.986;11.618;2024-03-23T07:15:11;11.90;99.90
39925;DHT22;25592;49.986;11.618;2024-03-23T07:17:56;12.00;99.90
39925;DHT22;25592;49.986;11.618;2024-03-23T07:20:40;11.90;99.90
39925;DHT22;25592;49.986;11.618;2024-03-23T07:23:25;11.90;99.90
39925;DHT22;25592;49.986;11.618;2024-03-23T07:26:10;11.90;99.90
39925;DHT22;25592;49.986;11.618;2024-03-23T07:28:55;11.90;99.90
39925;DHT22;25592;49.986;11.618;2024-03-23T07:31:40;11.90;99.90
39925;DHT22;25592;49.986;11.618;2024-03-23T07:34:25;11.70;99.90
39925;DHT22;25592;49.986;11.618;2024-03-23T07:37:10;11.60;99.90
39925;DHT22;25592;49.986;11.618;2024-03-23T07:39:55;11.50;99.90
39925;DHT22;25592;49.986;11.618;2024-03-23T07:42:40;11.40;99.90
39925;DHT22;25592;49.986;11.618;2024-03-23T07:45:24;11.50;99.90
39925;DHT22;25592;49.986;11.618;2024-03-23T07:48:09;11.50;99.90
39925;DHT22;25592;49.986;11.618;2024-03-23T07:50:59;11.40;99.90
39925;DHT22;25592;49.986;11.618;2024-03-23T07:53:44;11.30;99.90
39925;DHT22;25592;49.986;11.618;2024-03-23T07:56:36;11.20;99.90
39925;DHT22;25592;49.986;11.618;2024-03-23T07:59:21;11.00;99.90
39925;DHT22;25592;49.986;11.618;2024-03-23T08:02:06;10.90;99.90
39925;DHT22;25592;49.986;11.618;2024-03-23T08:04:51;10.90;99.90
39925;DHT22;25592;49.986;11.618;2024-03-23T08:07:35;10.80;99.90
39925;DHT22;25592;49.986;11.618;2024-03-23T08:10:20;10.70;99.90
39925;DHT22;25592;49.986;11.618;2024-03-23T08:13:04;10.90;99.90
39925;DHT22;25592;49.986;11.618;2024-03-23T08:15:50;10.90;99.90
39925;DHT22;25592;49.986;11.618;2024-03-23T08:18:34;10.90;99.90
39925;DHT22;25592;49.986;11.618;2024-03-23T08:54:06;10.70;99.90
39925;DHT22;25592;49.986;11.618;2024-03-23T08:56:51;10.70;99.90
39925;DHT22;25592;49.986;11.618;2024-03-23T08:59:37;10.70;99.90
39925;DHT22;25592;49.986;11.618;2024-03-23T09:02:22;10.70;99.90
39925;DHT22;25592;49.986;11.618;2024-03-23T09:05:06;10.60;99.90
39925;DHT22;25592;49.986;11.618;2024-03-23T09:07:51;10.50;99.90
39925;DHT22;25592;49.986;11.618;2024-03-23T09:10:38;10.40;99.90
39925;DHT22;25592;49.986;11.618;2024-03-23T09:13:23;10.40;99.90
39925;DHT22;25592;49.986;11.618;2024-03-23T09:16:07;10.50;99.90
39925;DHT22;25592;49.986;11.618;2024-03-23T09:18:53;10.50;99.90
39925;DHT22;25592;49.986;11.618;2024-03-23T09:21:38;10.30;99.90
39925;DHT22;25592;49.986;11.618;2024-03-23T09:24:22;10.10;99.90
39925;DHT22;25592;49.986;11.618;2024-03-23T09:27:07;10.00;99.90
39925;DHT22;25592;49.986;11.618;2024-03-23T09:29:52;9.90;99.90
39925;DHT22;25592;49.986;11.618;2024-03-23T09:32:37;9.80;99.60
39925;DHT22;25592;49.986;11.618;2024-03-23T09:35:21;9.70;99.80
39925;DHT22;25592;49.986;11.618;2024-03-23T09:38:06;9.60;99.90
39925;DHT22;25592;49.986;11.618;2024-03-23T09:40:54;9.40;99.90
39925;DHT22;25592;49.986;11.618;2024-03-23T09:43:39;9.30;99.90
39925;DHT22;25592;49.986;11.618;2024-03-23T09:46:24;9.30;99.90
39925;DHT22;25592;49.986;11.618;2024-03-23T09:49:08;9.30;99.70
39925;DHT22;25592;49.986;11.618;2024-03-23T09:51:53;9.20;99.30
39925;DHT22;25592;49.986;11.618;2024-03-23T09:54:39;9.30;98.70
39925;DHT22;25592;49.986;11.618;2024-03-23T09:57:23;9.30;98.50
39925;DHT22;25592;49.986;11.618;2024-03-23T10:00:09;9.50;98.70
39925;DHT22;25592;49.986;11.618;2024-03-23T10:02:57;9.90;98.40
39925;DHT22;25592;49.986;11.618;2024-03-23T10:05:46;10.20;97.80
39925;DHT22;25592;49.986;11.618;2024-03-23T10:08:30;10.40;97.10
39925;DHT22;25592;49.986;11.618;2024-03-23T10:11:20;10.60;97.40
39925;DHT22;25592;49.986;11.618;2024-03-23T10:14:05;11.00;97.10
39925;DHT22;25592;49.986;11.618;2024-03-23T10:16:50;11.10;96.70
39925;DHT22;25592;49.986;11.618;2024-03-23T10:19:35;11.30;95.50
39925;DHT22;25592;49.986;11.618;2024-03-23T10:22:22;11.40;95.80
39925;DHT22;25592;49.986;11.618;2024-03-23T10:25:08;11.30;95.40
39925;DHT22;25592;49.986;11.618;2024-03-23T10:28:00;11.10;94.80
39925;DHT22;25592;49.986;11.618;2024-03-23T10:30:45;11.20;94.80
39925;DHT22;25592;49.986;11.618;2024-03-23T10:33:29;11.00;94.20
39925;DHT22;25592;49.986;11.618;2024-03-23T10:36:15;10.80;93.90
39925;DHT22;25592;49.986;11.618;2024-03-23T10:38:59;10.70;94.50
39925;DHT22;25592;49.986;11.618;2024-03-23T10:41:45;10.80;95.10
39925;DHT22;25592;49.986;11.618;2024-03-23T10:44:32;10.80;94.20
39925;DHT22;25592;49.986;11.618;2024-03-23T10:47:16;11.00;94.70
39925;DHT22;25592;49.986;11.618;2024-03-23T10:50:00;11.20;94.10
39925;DHT22;25592;49.986;11.618;2024-03-23T10:52:47;11.30;94.60
39925;DHT22;25592;49.986;11.618;2024-03-23T10:55:32;11.40;94.20
39925;DHT22;25592;49.986;11.618;2024-03-23T10:58:32;11.50;94.70
39925;DHT22;25592;49.986;11.618;2024-03-23T11:01:17;11.40;94.20
39925;DHT22;25592;49.986;11.618;2024-03-23T11:04:02;11.40;94.40
39925;DHT22;25592;49.986;11.618;2024-03-23T11:06:46;11.40;94.10
39925;DHT22;25592;49.986;11.618;2024-03-23T11:09:38;11.30;92.90
39925;DHT22;25592;49.986;11.618;2024-03-23T11:15:11;10.90;93.20
39925;DHT22;25592;49.986;11.618;2024-03-23T11:18:07;10.80;92.60
39925;DHT22;25592;49.986;11.618;2024-03-23T11:20:56;10.60;93.20
39925;DHT22;25592;49.986;11.618;2024-03-23T11:23:40;10.70;93.00
39925;DHT22;25592;49.986;11.618;2024-03-23T11:26:25;10.70;92.80
39925;DHT22;25592;49.986;11.618;2024-03-23T11:29:10;10.80;92.50
39925;DHT22;25592;49.986;11.618;2024-03-23T11:31:56;10.70;92.90
39925;DHT22;25592;49.986;11.618;2024-03-23T11:34:40;11.00;92.40
39925;DHT22;25592;49.986;11.618;2024-03-23T11:37:24;11.40;92.70
39925;DHT22;25592;49.986;11.618;2024-03-23T11:40:19;11.80;92.40
39925;DHT22;25592;49.986;11.618;2024-03-23T11:43:05;12.10;91.60
39925;DHT22;25592;49.986;11.618;2024-03-23T11:45:52;12.30;91.70
39925;DHT22;25592;49.986;11.618;2024-03-23T11:48:37;12.80;90.80
39925;DHT22;25592;49.986;11.618;2024-03-23T11:51:21;12.60;89.50
39925;DHT22;25592;49.986;11.618;2024-03-23T11:54:09;12.20;89.90
39925;DHT22;25592;49.986;11.618;2024-03-23T11:57:04;12.00;89.90
39925;DHT22;25592;49.986;11.618;2024-03-23T11:59:52;12.00;90.10
39925;DHT22;25592;49.986;11.618;2024-03-23T12:02:37;12.20;90.00
39925;DHT22;25592;49.986;11.618;2024-03-23T12:05:21;12.00;87.80
39925;DHT22;25592;49.986;11.618;2024-03-23T12:08:17;11.80;89.60
39925;DHT22;25592;49.986;11.618;2024-03-23T12:11:07;11.60;90.00
39925;DHT22;25592;49.986;11.618;2024-03-23T12:13:59;11.70;90.50
39925;DHT22;25592;49.986;11.618;2024-03-23T12:16:45;11.50;87.70
39925;DHT22;25592;49.986;11.618;2024-03-23T12:19:29;11.40;90.30
39925;DHT22;25592;49.986;11.618;2024-03-23T12:22:14;11.50;90.20
39925;DHT22;25592;49.986;11.618;2024-03-23T12:24:59;11.40;89.90
39925;DHT22;25592;49.986;11.618;2024-03-23T12:27:43;11.30;88.70
39925;DHT22;25592;49.986;11.618;2024-03-23T12:30:28;11.40;88.70
39925;DHT22;25592;49.986;11.618;2024-03-23T12:33:13;11.80;88.80
39925;DHT22;25592;49.986;11.618;2024-03-23T12:35:58;12.20;89.00
39925;DHT22;25592;49.986;11.618;2024-03-23T12:38:42;12.80;88.20
39925;DHT22;25592;49.986;11.618;2024-03-23T12:41:28;12.80;86.40
39925;DHT22;25592;49.986;11.618;2024-03-23T12:44:13;12.50;83.10
39925;DHT22;25592;49.986;11.618;2024-03-23T12:46:59;12.20;80.50
39925;DHT22;25592;49.986;11.618;2024-03-23T12:49:43;12.10;82.00
39925;DHT22;25592;49.986;11.618;2024-03-23T12:52:28;12.30;82.80
39925;DHT22;25592;49.986;11.618;2024-03-23T12:55:13;12.50;81.40
39925;DHT22;25592;49.986;11.618;2024-03-23T12:57:58;12.80;82.30
39925;DHT22;25592;49.986;11.618;2024-03-23T13:00:42;12.90;82.50
39925;DHT22;25592;49.986;11.618;2024-03-23T13:03:28;13.30;83.30
39925;DHT22;25592;49.986;11.618;2024-03-23T13:06:13;13.50;80.90
39925;DHT22;25592;49.986;11.618;2024-03-23T13:08:57;13.50;79.80
39925;DHT22;25592;49.986;11.618;2024-03-23T13:11:42;13.40;79.70
39925;DHT22;25592;49.986;11.618;2024-03-23T13:14:27;13.50;80.50
39925;DHT22;25592;49.986;11.618;2024-03-23T13:17:12;13.30;78.90
39925;DHT22;25592;49.986;11.618;2024-03-23T13:19:56;13.20;79.40
39925;DHT22;25592;49.986;11.618;2024-03-23T13:22:42;13.30;79.60
39925;DHT22;25592;49.986;11.618;2024-03-23T13:25:26;13.20;77.50
39925;DHT22;25592;49.986;11.618;2024-03-23T13:28:11;13.10;79.70
39925;DHT22;25592;49.986;11.618;2024-03-23T13:30:56;13.20;79.30
39925;DHT22;25592;49.986;11.618;2024-03-23T13:33:42;13.50;78.20
39925;DHT22;25592;49.986;11.618;2024-03-23T13:36:28;13.80;78.90
39925;DHT22;25592;49.986;11.618;2024-03-23T13:39:13;14.50;80.10
39925;DHT22;25592;49.986;11.618;2024-03-23T13:41:58;14.80;80.00
39925;DHT22;25592;49.986;11.618;2024-03-23T13:44:43;15.10;78.30
39925;DHT22;25592;49.986;11.618;2024-03-23T13:47:27;15.20;78.50
39925;DHT22;25592;49.986;11.618;2024-03-23T13:50:12;15.10;79.00
39925;DHT22;25592;49.986;11.618;2024-03-23T13:52:57;15.20;78.90
39925;DHT22;25592;49.986;11.618;2024-03-23T13:55:46;15.40;79.40
39925;DHT22;25592;49.986;11.618;2024-03-23T13:58:32;15.30;78.50
39925;DHT22;25592;49.986;11.618;2024-03-23T14:01:17;14.90;75.70
39925;DHT22;25592;49.986;11.618;2024-03-23T14:04:02;14.70;77.30
39925;DHT22;25592;49.986;11.618;2024-03-23T14:06:46;14.70;76.90
39925;DHT22;25592;49.986;11.618;2024-03-23T14:09:31;15.00;75.80
39925;DHT22;25592;49.986;11.618;2024-03-23T14:12:17;14.90;77.00
39925;DHT22;25592;49.986;11.618;2024-03-23T14:15:01;15.00;76.20
39925;DHT22;25592;49.986;11.618;2024-03-23T14:17:47;14.70;76.50
39925;DHT22;25592;49.986;11.618;2024-03-23T14:20:31;14.40;76.10
39925;DHT22;25592;49.986;11.618;2024-03-23T14:23:16;14.20;76.60
39925;DHT22;25592;49.986;11.618;2024-03-23T14:26:01;13.80;77.00
39925;DHT22;25592;49.986;11.618;2024-03-23T14:28:45;13.50;78.50
39925;DHT22;25592;49.986;11.618;2024-03-23T14:31:30;12.80;81.50
39925;DHT22;25592;49.986;11.618;2024-03-23T14:34:14;12.90;85.00
39925;DHT22;25592;49.986;11.618;2024-03-23T14:36:59;12.90;85.70
39925;DHT22;25592;49.986;11.618;2024-03-23T14:39:44;13.00;85.60
39925;DHT22;25592;49.986;11.618;2024-03-23T14:42:29;13.20;85.30
39925;DHT22;25592;49.986;11.618;2024-03-23T14:45:15;13.20;85.80
39925;DHT22;25592;49.986;11.618;2024-03-23T14:47:59;13.00;86.00
39925;DHT22;25592;49.986;11.618;2024-03-23T14:50:44;13.20;86.10
39925;DHT22;25592;49.986;11.618;2024-03-23T14:53:35;13.60;86.10
39925;DHT22;25592;49.986;11.618;2024-03-23T14:56:20;13.90;84.60
39925;DHT22;25592;49.986;11.618;2024-03-23T14:59:05;14.00;84.80
39925;DHT22;25592;49.986;11.618;2024-03-23T15:01:50;14.00;84.60
39925;DHT22;25592;49.986;11.618;2024-03-23T15:04:36;14.10;85.10
39925;DHT22;25592;49.986;11.618;2024-03-23T15:07:20;14.20;82.80
39925;DHT22;25592;49.986;11.618;2024-03-23T15:10:06;14.50;83.90
39925;DHT22;25592;49.986;11.618;2024-03-23T15:12:50;14.60;83.50
39925;DHT22;25592;49.986;11.618;2024-03-23T15:15:39;14.30;82.40
39925;DHT22;25592;49.986;11.618;2024-03-23T15:18:24;14.30;82.40
39925;DHT22;25592;49.986;11.618;2024-03-23T15:21:13;13.70;83.30
39925;DHT22;25592;49.986;11.618;2024-03-23T15:24:04;13.70;84.00
39925;DHT22;25592;49.986;11.618;2024-03-23T15:26:48;13.30;83.30
39925;DHT22;25592;49.986;11.618;2024-03-23T15:29:34;12.50;81.40
39925;DHT22;25592;49.986;11.618;2024-03-23T15:32:20;12.40;82.40
39925;DHT22;25592;49.986;11.618;2024-03-23T15:35:05;11.80;81.60
39925;DHT22;25592;49.986;11.618;2024-03-23T15:37:52;11.90;82.90
39925;DHT22;25592;49.986;11.618;2024-03-23T15:40:36;12.10;83.00
39925;DHT22;25592;49.986;11.618;2024-03-23T15:43:21;12.10;83.50
39925;DHT22;25592;49.986;11.618;2024-03-23T15:46:05;12.50;85.70
39925;DHT22;25592;49.986;11.618;2024-03-23T15:48:50;12.50;82.40
39925;DHT22;25592;49.986;11.618;2024-03-23T15:51:35;12.80;83.80
39925;DHT22;25592;49.986;11.618;2024-03-23T15:54:21;13.10;82.90
39925;DHT22;25592;49.986;11.618;2024-03-23T15:57:06;13.10;82.00
39925;DHT22;25592;49.986;11.618;2024-03-23T15:59:51;13.40;80.80
39925;DHT22;25592;49.986;11.618;2024-03-23T16:02:36;13.50;79.30
39925;DHT22;25592;49.986;11.618;2024-03-23T16:05:20;13.40;80.50
39925;DHT22;25592;49.986;11.618;2024-03-23T16:08:05;13.20;79.80
39925;DHT22;25592;49.986;11.618;2024-03-23T16:10:53;12.80;78.70
39925;DHT22;25592;49.986;11.618;2024-03-23T16:13:38;12.40;79.90
39925;DHT22;25592;49.986;11.618;2024-03-23T16:16:24;12.10;80.40
39925;DHT22;25592;49.986;11.618;2024-03-23T16:19:09;12.20;80.30
39925;DHT22;25592;49.986;11.618;2024-03-23T16:21:55;12.10;78.90
39925;DHT22;25592;49.986;11.618;2024-03-23T16:24:39;12.00;80.20
39925;DHT22;25592;49.986;11.618;2024-03-23T16:27:24;11.90;79.80
39925;DHT22;25592;49.986;11.618;2024-03-23T16:30:09;11.80;79.90
39925;DHT22;25592;49.986;11.618;2024-03-23T16:32:54;12.00;80.70
39925;DHT22;25592;49.986;11.618;2024-03-23T16:35:39;12.10;80.80
39925;DHT22;25592;49.986;11.618;2024-03-23T16:38:24;12.10;81.80
39925;DHT22;25592;49.986;11.618;2024-03-23T16:41:10;11.90;81.50
39925;DHT22;25592;49.986;11.618;2024-03-23T16:44:01;11.70;80.70
39925;DHT22;25592;49.986;11.618;2024-03-23T16:46:45;11.30;81.10
39925;DHT22;25592;49.986;11.618;2024-03-23T16:49:31;10.60;90.60
39925;DHT22;25592;49.986;11.618;2024-03-23T16:52:16;10.00;92.20
39925;DHT22;25592;49.986;11.618;2024-03-23T16:55:00;9.70;92.50
39925;DHT22;25592;49.986;11.618;2024-03-23T16:57:45;9.20;93.50
39925;DHT22;25592;49.986;11.618;2024-03-23T17:00:30;9.20;93.70
39925;DHT22;25592;49.986;11.618;2024-03-23T17:03:15;9.20;93.40
39925;DHT22;25592;49.986;11.618;2024-03-23T17:06:07;9.00;93.60
39925;DHT22;25592;49.986;11.618;2024-03-23T17:08:51;9.00;94.10
39925;DHT22;25592;49.986;11.618;2024-03-23T17:11:37;9.10;93.90
39925;DHT22;25592;49.986;11.618;2024-03-23T17:14:22;9.10;93.60
39925;DHT22;25592;49.986;11.618;2024-03-23T17:17:06;9.00;93.50
39925;DHT22;25592;49.986;11.618;2024-03-23T17:19:59;8.90;93.50
39925;DHT22;25592;49.986;11.618;2024-03-23T17:22:44;9.00;93.80
39925;DHT22;25592;49.986;11.618;2024-03-23T17:25:29;9.10;93.50
39925;DHT22;25592;49.986;11.618;2024-03-23T17:28:13;9.10;93.40
39925;DHT22;25592;49.986;11.618;2024-03-23T17:31:00;9.20;93.40
39925;DHT22;25592;49.986;11.618;2024-03-23T17:33:45;9.30;93.40
39925;DHT22;25592;49.986;11.618;2024-03-23T17:36:29;9.50;93.20
39925;DHT22;25592;49.986;11.618;2024-03-23T17:39:14;9.50;93.00
39925;DHT22;25592;49.986;11.618;2024-03-23T17:42:00;9.70;94.30
39925;DHT22;25592;49.986;11.618;2024-03-23T17:44:45;10.10;93.60
39925;DHT22;25592;49.986;11.618;2024-03-23T17:47:37;10.10;92.90
39925;DHT22;25592;49.986;11.618;2024-03-23T17:50:22;10.00;92.50
39925;DHT22;25592;49.986;11.618;2024-03-23T17:53:07;9.90;92.60
39925;DHT22;25592;49.986;11.618;2024-03-23T17:55:52;9.90;92.50
39925;DHT22;25592;49.986;11.618;2024-03-23T17:58:36;9.90;92.40
39925;DHT22;25592;49.986;11.618;2024-03-23T18:01:21;9.90;92.50
39925;DHT22;25592;49.986;11.618;2024-03-23T18:04:08;9.90;92.20
39925;DHT22;25592;49.986;11.618;2024-03-23T18:06:53;10.00;92.10
39925;DHT22;25592;49.986;11.618;2024-03-23T18:09:38;10.00;92.10
39925;DHT22;25592;49.986;11.618;2024-03-23T18:12:22;9.90;92.20
39925;DHT22;25592;49.986;11.618;2024-03-23T18:15:08;9.80;92.00
39925;DHT22;25592;49.986;11.618;2024-03-23T18:17:52;9.70;92.10
39925;DHT22;25592;49.986;11.618;2024-03-23T18:20:37;9.70;91.90
39925;DHT22;25592;49.986;11.618;2024-03-23T18:23:22;9.70;92.00
39925;DHT22;25592;49.986;11.618;2024-03-23T18:26:06;9.70;92.00
39925;DHT22;25592;49.986;11.618;2024-03-23T18:28:52;9.70;91.80
39925;DHT22;25592;49.986;11.618;2024-03-23T18:31:37;9.60;91.60
39925;DHT22;25592;49.986;11.618;2024-03-23T18:34:21;9.40;91.60
39925;DHT22;25592;49.986;11.618;2024-03-23T18:37:06;9.30;92.00
39925;DHT22;25592;49.986;11.618;2024-03-23T18:39:50;9.30;91.60